sensor_id;sensor_type;location;lat;lon;timestamp;P1;durP1;ratioP1;P2;durP2;ratioP2
77736;SDS011;66903;59.926;30.404;2023-03-12T00:11:40;3.97;;;1.42;;
77736;SDS011;66903;59.926;30.404;2023-03-12T00:16:41;4.18;;;1.17;;
77736;SDS011;66903;59.926;30.404;2023-03-12T00:27:50;3.53;;;1.35;;
77736;SDS011;66903;59.926;30.404;2023-03-12T00:33:10;3.45;;;1.17;;
77736;SDS011;66903;59.926;30.404;2023-03-12T00:38:11;3.85;;;1.38;;
77736;SDS011;66903;59.926;30.404;2023-03-12T00:43:57;3.80;;;1.40;;
77736;SDS011;66903;59.926;30.404;2023-03-12T00:48:58;4.35;;;1.33;;
77736;SDS011;66903;59.926;30.404;2023-03-12T00:54:25;3.40;;;1.30;;
77736;SDS011;66903;59.926;30.404;2023-03-12T00:59:56;3.50;;;1.27;;
77736;SDS011;66903;59.926;30.404;2023-03-12T01:05:34;2.80;;;1.08;;
77736;SDS011;66903;59.926;30.404;2023-03-12T01:10:40;3.05;;;1.27;;
77736;SDS011;66903;59.926;30.404;2023-03-12T01:15:41;4.30;;;1.58;;
77736;SDS011;66903;59.926;30.404;2023-03-12T01:20:45;4.68;;;1.80;;
77736;SDS011;66903;59.926;30.404;2023-03-12T01:26:01;3.47;;;1.45;;
77736;SDS011;66903;59.926;30.404;2023-03-12T01:49:23;4.78;;;1.90;;
77736;SDS011;66903;59.926;30.404;2023-03-12T01:54:57;4.70;;;1.70;;
77736;SDS011;66903;59.926;30.404;2023-03-12T02:12:11;4.18;;;1.80;;
77736;SDS011;66903;59.926;30.404;2023-03-12T02:17:12;4.15;;;1.70;;
77736;SDS011;66903;59.926;30.404;2023-03-12T02:33:31;4.53;;;1.90;;
77736;SDS011;66903;59.926;30.404;2023-03-12T02:38:57;3.50;;;1.42;;
77736;SDS011;66903;59.926;30.404;2023-03-12T02:49:08;4.63;;;1.70;;
77736;SDS011;66903;59.926;30.404;2023-03-12T03:05:37;4.85;;;1.73;;
77736;SDS011;66903;59.926;30.404;2023-03-12T03:11:02;5.13;;;1.50;;
77736;SDS011;66903;59.926;30.404;2023-03-12T03:16:02;4.45;;;1.80;;
77736;SDS011;66903;59.926;30.404;2023-03-12T03:26:32;3.72;;;1.70;;
77736;SDS011;66903;59.926;30.404;2023-03-12T03:31:32;4.07;;;1.42;;
77736;SDS011;66903;59.926;30.404;2023-03-12T03:36:33;3.92;;;1.50;;
77736;SDS011;66903;59.926;30.404;2023-03-12T03:41:39;3.97;;;1.50;;
77736;SDS011;66903;59.926;30.404;2023-03-12T03:53:05;3.30;;;1.13;;
77736;SDS011;66903;59.926;30.404;2023-03-12T04:03:53;3.83;;;1.45;;
77736;SDS011;66903;59.926;30.404;2023-03-12T04:09:03;3.85;;;1.30;;
77736;SDS011;66903;59.926;30.404;2023-03-12T04:14:12;3.33;;;1.38;;
77736;SDS011;66903;59.926;30.404;2023-03-12T04:19:13;2.78;;;0.90;;
77736;SDS011;66903;59.926;30.404;2023-03-12T04:24:14;4.13;;;1.42;;
77736;SDS011;66903;59.926;30.404;2023-03-12T04:29:16;3.17;;;1.27;;
77736;SDS011;66903;59.926;30.404;2023-03-12T04:34:17;3.97;;;1.40;;
77736;SDS011;66903;59.926;30.404;2023-03-12T04:39:18;3.53;;;1.33;;
77736;SDS011;66903;59.926;30.404;2023-03-12T04:44:19;3.40;;;1.23;;
77736;SDS011;66903;59.926;30.404;2023-03-12T04:49:20;2.83;;;1.02;;
77736;SDS011;66903;59.926;30.404;2023-03-12T04:54:20;3.25;;;1.00;;
77736;SDS011;66903;59.926;30.404;2023-03-12T04:59:21;3.40;;;1.30;;
77736;SDS011;66903;59.926;30.404;2023-03-12T05:04:21;3.95;;;1.20;;
77736;SDS011;66903;59.926;30.404;2023-03-12T05:09:22;3.13;;;1.25;;
77736;SDS011;66903;59.926;30.404;2023-03-12T05:14:22;2.35;;;0.90;;
77736;SDS011;66903;59.926;30.404;2023-03-12T05:19:23;3.67;;;1.02;;
77736;SDS011;66903;59.926;30.404;2023-03-12T05:24:23;3.28;;;1.13;;
77736;SDS011;66903;59.926;30.404;2023-03-12T05:29:24;2.97;;;1.27;;
77736;SDS011;66903;59.926;30.404;2023-03-12T05:34:24;3.05;;;1.10;;
77736;SDS011;66903;59.926;30.404;2023-03-12T05:39:25;3.10;;;1.10;;
77736;SDS011;66903;59.926;30.404;2023-03-12T05:44:26;3.40;;;1.20;;
77736;SDS011;66903;59.926;30.404;2023-03-12T05:49:27;4.07;;;1.05;;
77736;SDS011;66903;59.926;30.404;2023-03-12T05:54:27;2.92;;;1.00;;
77736;SDS011;66903;59.926;30.404;2023-03-12T05:59:28;3.55;;;1.02;;
77736;SDS011;66903;59.926;30.404;2023-03-12T06:04:29;3.00;;;1.10;;
77736;SDS011;66903;59.926;30.404;2023-03-12T06:15:07;2.80;;;1.10;;
77736;SDS011;66903;59.926;30.404;2023-03-12T06:20:09;2.20;;;0.73;;
77736;SDS011;66903;59.926;30.404;2023-03-12T06:25:10;3.25;;;1.10;;
77736;SDS011;66903;59.926;30.404;2023-03-12T06:30:10;2.13;;;0.90;;
77736;SDS011;66903;59.926;30.404;2023-03-12T06:35:11;2.58;;;1.10;;
77736;SDS011;66903;59.926;30.404;2023-03-12T06:40:12;2.40;;;0.80;;
77736;SDS011;66903;59.926;30.404;2023-03-12T06:45:12;1.58;;;0.63;;
77736;SDS011;66903;59.926;30.404;2023-03-12T06:50:13;2.83;;;0.90;;
77736;SDS011;66903;59.926;30.404;2023-03-12T06:55:13;2.33;;;0.77;;
77736;SDS011;66903;59.926;30.404;2023-03-12T07:00:14;2.75;;;1.00;;
77736;SDS011;66903;59.926;30.404;2023-03-12T07:05:15;3.33;;;0.95;;
77736;SDS011;66903;59.926;30.404;2023-03-12T07:10:15;3.60;;;0.93;;
77736;SDS011;66903;59.926;30.404;2023-03-12T07:15:17;2.30;;;0.85;;
77736;SDS011;66903;59.926;30.404;2023-03-12T07:20:17;2.28;;;0.90;;
77736;SDS011;66903;59.926;30.404;2023-03-12T07:25:18;3.03;;;0.85;;
77736;SDS011;66903;59.926;30.404;2023-03-12T07:30:18;2.55;;;0.80;;
77736;SDS011;66903;59.926;30.404;2023-03-12T07:35:19;2.40;;;0.80;;
77736;SDS011;66903;59.926;30.404;2023-03-12T07:40:19;2.03;;;0.70;;
77736;SDS011;66903;59.926;30.404;2023-03-12T07:45:20;1.38;;;0.70;;
77736;SDS011;66903;59.926;30.404;2023-03-12T07:50:21;2.17;;;0.90;;
77736;SDS011;66903;59.926;30.404;2023-03-12T07:55:22;1.73;;;0.70;;
77736;SDS011;66903;59.926;30.404;2023-03-12T08:00:30;1.75;;;0.68;;
77736;SDS011;66903;59.926;30.404;2023-03-12T08:05:35;3.78;;;0.95;;
77736;SDS011;66903;59.926;30.404;2023-03-12T08:10:44;2.42;;;0.88;;
77736;SDS011;66903;59.926;30.404;2023-03-12T08:15:47;2.25;;;0.70;;
77736;SDS011;66903;59.926;30.404;2023-03-12T08:20:50;2.22;;;0.70;;
77736;SDS011;66903;59.926;30.404;2023-03-12T08:25:51;2.17;;;0.80;;
77736;SDS011;66903;59.926;30.404;2023-03-12T08:30:54;3.33;;;1.00;;
77736;SDS011;66903;59.926;30.404;2023-03-12T08:35:57;2.03;;;0.63;;
77736;SDS011;66903;59.926;30.404;2023-03-12T08:40:58;1.73;;;0.70;;
77736;SDS011;66903;59.926;30.404;2023-03-12T08:46:00;2.20;;;0.77;;
77736;SDS011;66903;59.926;30.404;2023-03-12T08:51:02;1.58;;;0.57;;
77736;SDS011;66903;59.926;30.404;2023-03-12T08:56:03;1.10;;;0.45;;
77736;SDS011;66903;59.926;30.404;2023-03-12T09:01:11;5.68;;;1.00;;
77736;SDS011;66903;59.926;30.404;2023-03-12T09:06:12;1.42;;;0.57;;
77736;SDS011;66903;59.926;30.404;2023-03-12T09:11:15;3.10;;;0.80;;
77736;SDS011;66903;59.926;30.404;2023-03-12T09:16:17;1.75;;;0.70;;
77736;SDS011;66903;59.926;30.404;2023-03-12T09:21:17;1.10;;;0.50;;
77736;SDS011;66903;59.926;30.404;2023-03-12T09:26:18;3.58;;;0.80;;
77736;SDS011;66903;59.926;30.404;2023-03-12T09:31:18;1.98;;;0.60;;
77736;SDS011;66903;59.926;30.404;2023-03-12T09:36:20;4.43;;;0.80;;
77736;SDS011;66903;59.926;30.404;2023-03-12T09:41:25;1.48;;;0.55;;
77736;SDS011;66903;59.926;30.404;2023-03-12T09:51:42;3.28;;;0.63;;
77736;SDS011;66903;59.926;30.404;2023-03-12T09:56:46;1.95;;;0.52;;
77736;SDS011;66903;59.926;30.404;2023-03-12T10:01:51;1.27;;;0.50;;
77736;SDS011;66903;59.926;30.404;2023-03-12T10:12:19;1.73;;;0.55;;
77736;SDS011;66903;59.926;30.404;2023-03-12T10:17:53;1.40;;;0.65;;
77736;SDS011;66903;59.926;30.404;2023-03-12T10:28:34;1.85;;;0.52;;
77736;SDS011;66903;59.926;30.404;2023-03-12T10:33:43;1.17;;;0.43;;
77736;SDS011;66903;59.926;30.404;2023-03-12T10:44:27;1.88;;;0.65;;
77736;SDS011;66903;59.926;30.404;2023-03-12T10:49:30;2.50;;;0.47;;
77736;SDS011;66903;59.926;30.404;2023-03-12T10:54:38;1.55;;;0.50;;
77736;SDS011;66903;59.926;30.404;2023-03-12T10:59:41;2.03;;;0.50;;
77736;SDS011;66903;59.926;30.404;2023-03-12T11:04:44;1.55;;;0.50;;
77736;SDS011;66903;59.926;30.404;2023-03-12T11:25:27;1.05;;;0.45;;
77736;SDS011;66903;59.926;30.404;2023-03-12T11:30:30;1.05;;;0.50;;
77736;SDS011;66903;59.926;30.404;2023-03-12T11:41:30;2.35;;;1.05;;
77736;SDS011;66903;59.926;30.404;2023-03-12T11:57:51;1.20;;;0.60;;
77736;SDS011;66903;59.926;30.404;2023-03-12T12:13:42;2.75;;;1.05;;
77736;SDS011;66903;59.926;30.404;2023-03-12T12:18:48;1.67;;;0.60;;
77736;SDS011;66903;59.926;30.404;2023-03-12T12:24:00;1.17;;;0.47;;
77736;SDS011;66903;59.926;30.404;2023-03-12T12:45:26;1.20;;;0.60;;
77736;SDS011;66903;59.926;30.404;2023-03-12T12:50:29;2.22;;;0.70;;
77736;SDS011;66903;59.926;30.404;2023-03-12T12:55:36;2.15;;;0.80;;
77736;SDS011;66903;59.926;30.404;2023-03-12T13:00:50;2.17;;;0.60;;
77736;SDS011;66903;59.926;30.404;2023-03-12T13:05:55;18.63;;;4.10;;
77736;SDS011;66903;59.926;30.404;2023-03-12T13:10:56;24.10;;;6.32;;
77736;SDS011;66903;59.926;30.404;2023-03-12T13:16:15;20.85;;;5.28;;
77736;SDS011;66903;59.926;30.404;2023-03-12T13:32:36;12.27;;;3.30;;
77736;SDS011;66903;59.926;30.404;2023-03-12T13:38:01;11.65;;;2.78;;
77736;SDS011;66903;59.926;30.404;2023-03-12T13:48:34;8.57;;;2.67;;
77736;SDS011;66903;59.926;30.404;2023-03-12T13:53:46;6.70;;;1.50;;
77736;SDS011;66903;59.926;30.404;2023-03-12T13:58:53;5.70;;;1.65;;
77736;SDS011;66903;59.926;30.404;2023-03-12T14:04:00;3.88;;;1.25;;
77736;SDS011;66903;59.926;30.404;2023-03-12T14:09:14;7.30;;;1.20;;
77736;SDS011;66903;59.926;30.404;2023-03-12T14:20:10;3.67;;;1.10;;
77736;SDS011;66903;59.926;30.404;2023-03-12T14:25:16;5.70;;;1.10;;
77736;SDS011;66903;59.926;30.404;2023-03-12T14:36:06;2.97;;;0.90;;
77736;SDS011;66903;59.926;30.404;2023-03-12T14:46:23;6.35;;;1.08;;
77736;SDS011;66903;59.926;30.404;2023-03-12T14:51:28;2.92;;;0.75;;
77736;SDS011;66903;59.926;30.404;2023-03-12T14:56:35;3.58;;;0.80;;
77736;SDS011;66903;59.926;30.404;2023-03-12T15:01:36;2.10;;;0.70;;
77736;SDS011;66903;59.926;30.404;2023-03-12T15:06:42;2.53;;;0.50;;
77736;SDS011;66903;59.926;30.404;2023-03-12T15:11:49;2.08;;;0.60;;
77736;SDS011;66903;59.926;30.404;2023-03-12T15:17:02;2.15;;;0.70;;
77736;SDS011;66903;59.926;30.404;2023-03-12T15:22:06;1.63;;;0.45;;
77736;SDS011;66903;59.926;30.404;2023-03-12T15:32:29;1.17;;;0.50;;
77736;SDS011;66903;59.926;30.404;2023-03-12T15:37:31;1.45;;;0.60;;
77736;SDS011;66903;59.926;30.404;2023-03-12T15:42:40;2.20;;;0.70;;
77736;SDS011;66903;59.926;30.404;2023-03-12T15:47:45;2.20;;;0.60;;
77736;SDS011;66903;59.926;30.404;2023-03-12T15:53:57;0.82;;;0.38;;
77736;SDS011;66903;59.926;30.404;2023-03-12T15:58:24;1.30;;;0.50;;
77736;SDS011;66903;59.926;30.404;2023-03-12T16:03:28;1.33;;;0.43;;
77736;SDS011;66903;59.926;30.404;2023-03-12T16:08:33;3.50;;;0.60;;
77736;SDS011;66903;59.926;30.404;2023-03-12T16:13:37;1.08;;;0.43;;
77736;SDS011;66903;59.926;30.404;2023-03-12T16:18:39;1.73;;;0.50;;
77736;SDS011;66903;59.926;30.404;2023-03-12T16:23:40;2.15;;;0.52;;
77736;SDS011;66903;59.926;30.404;2023-03-12T16:28:41;1.98;;;0.40;;
77736;SDS011;66903;59.926;30.404;2023-03-12T16:38:54;0.30;;;0.25;;
77736;SDS011;66903;59.926;30.404;2023-03-12T16:43:55;0.77;;;0.40;;
77736;SDS011;66903;59.926;30.404;2023-03-12T16:48:55;1.25;;;0.40;;
77736;SDS011;66903;59.926;30.404;2023-03-12T16:53:56;2.58;;;0.63;;
77736;SDS011;66903;59.926;30.404;2023-03-12T16:58:58;1.38;;;0.40;;
77736;SDS011;66903;59.926;30.404;2023-03-12T17:04:03;1.27;;;0.40;;
77736;SDS011;66903;59.926;30.404;2023-03-12T17:09:04;1.10;;;0.40;;
77736;SDS011;66903;59.926;30.404;2023-03-12T17:14:17;0.68;;;0.40;;
77736;SDS011;66903;59.926;30.404;2023-03-12T17:19:21;1.33;;;0.52;;
77736;SDS011;66903;59.926;30.404;2023-03-12T17:24:21;1.30;;;0.40;;
77736;SDS011;66903;59.926;30.404;2023-03-12T17:29:26;1.02;;;0.40;;
77736;SDS011;66903;59.926;30.404;2023-03-12T17:34:27;1.35;;;0.43;;
77736;SDS011;66903;59.926;30.404;2023-03-12T17:39:28;0.98;;;0.30;;
77736;SDS011;66903;59.926;30.404;2023-03-12T17:44:32;1.85;;;0.55;;
77736;SDS011;66903;59.926;30.404;2023-03-12T17:49:33;0.30;;;0.30;;
77736;SDS011;66903;59.926;30.404;2023-03-12T17:54:34;0.57;;;0.30;;
77736;SDS011;66903;59.926;30.404;2023-03-12T17:59:35;1.10;;;0.40;;
77736;SDS011;66903;59.926;30.404;2023-03-12T18:04:35;0.90;;;0.38;;
77736;SDS011;66903;59.926;30.404;2023-03-12T18:09:36;3.97;;;1.48;;
77736;SDS011;66903;59.926;30.404;2023-03-12T18:14:36;5.97;;;2.83;;
77736;SDS011;66903;59.926;30.404;2023-03-12T18:19:37;8.82;;;3.28;;
77736;SDS011;66903;59.926;30.404;2023-03-12T18:24:38;14.10;;;6.22;;
77736;SDS011;66903;59.926;30.404;2023-03-12T18:29:39;8.13;;;4.60;;
77736;SDS011;66903;59.926;30.404;2023-03-12T18:34:40;5.63;;;2.63;;
77736;SDS011;66903;59.926;30.404;2023-03-12T18:39:41;5.28;;;2.17;;
77736;SDS011;66903;59.926;30.404;2023-03-12T18:44:41;6.85;;;2.17;;
77736;SDS011;66903;59.926;30.404;2023-03-12T18:49:42;4.88;;;1.83;;
77736;SDS011;66903;59.926;30.404;2023-03-12T18:54:45;5.80;;;2.22;;
77736;SDS011;66903;59.926;30.404;2023-03-12T18:59:46;3.78;;;1.52;;
77736;SDS011;66903;59.926;30.404;2023-03-12T19:04:46;5.32;;;2.13;;
77736;SDS011;66903;59.926;30.404;2023-03-12T19:09:47;3.30;;;1.30;;
77736;SDS011;66903;59.926;30.404;2023-03-12T19:14:56;3.70;;;1.30;;
77736;SDS011;66903;59.926;30.404;2023-03-12T19:20:21;4.43;;;1.35;;
77736;SDS011;66903;59.926;30.404;2023-03-12T19:25:31;3.75;;;1.25;;
77736;SDS011;66903;59.926;30.404;2023-03-12T19:31:14;4.70;;;1.23;;
77736;SDS011;66903;59.926;30.404;2023-03-12T19:36:30;3.28;;;1.13;;
77736;SDS011;66903;59.926;30.404;2023-03-12T19:41:42;2.70;;;1.00;;
77736;SDS011;66903;59.926;30.404;2023-03-12T19:47:17;2.83;;;0.90;;
77736;SDS011;66903;59.926;30.404;2023-03-12T19:52:20;2.03;;;0.60;;
77736;SDS011;66903;59.926;30.404;2023-03-12T19:57:22;2.17;;;0.70;;
77736;SDS011;66903;59.926;30.404;2023-03-12T20:02:22;3.00;;;0.90;;
77736;SDS011;66903;59.926;30.404;2023-03-12T20:07:23;1.67;;;0.57;;
77736;SDS011;66903;59.926;30.404;2023-03-12T20:12:23;1.55;;;0.65;;
77736;SDS011;66903;59.926;30.404;2023-03-12T20:17:27;1.60;;;0.50;;
77736;SDS011;66903;59.926;30.404;2023-03-12T20:22:27;1.02;;;0.40;;
77736;SDS011;66903;59.926;30.404;2023-03-12T20:27:28;1.58;;;0.63;;
77736;SDS011;66903;59.926;30.404;2023-03-12T20:32:28;1.23;;;0.30;;
77736;SDS011;66903;59.926;30.404;2023-03-12T20:37:29;3.67;;;0.80;;
77736;SDS011;66903;59.926;30.404;2023-03-12T20:42:30;3.38;;;0.90;;
77736;SDS011;66903;59.926;30.404;2023-03-12T20:52:33;1.63;;;0.50;;
77736;SDS011;66903;59.926;30.404;2023-03-12T21:02:34;3.60;;;0.63;;
77736;SDS011;66903;59.926;30.404;2023-03-12T21:07:34;3.67;;;0.60;;
77736;SDS011;66903;59.926;30.404;2023-03-12T21:12:35;1.55;;;0.60;;
77736;SDS011;66903;59.926;30.404;2023-03-12T21:17:38;1.67;;;0.43;;
77736;SDS011;66903;59.926;30.404;2023-03-12T21:22:39;3.33;;;0.50;;
77736;SDS011;66903;59.926;30.404;2023-03-12T21:27:42;2.60;;;0.68;;
77736;SDS011;66903;59.926;30.404;2023-03-12T21:32:45;2.80;;;0.50;;
77736;SDS011;66903;59.926;30.404;2023-03-12T21:38:03;1.55;;;0.45;;
77736;SDS011;66903;59.926;30.404;2023-03-12T21:43:04;2.28;;;0.50;;
77736;SDS011;66903;59.926;30.404;2023-03-12T21:48:04;0.50;;;0.30;;
77736;SDS011;66903;59.926;30.404;2023-03-12T21:53:17;1.40;;;0.40;;
77736;SDS011;66903;59.926;30.404;2023-03-12T21:58:20;1.48;;;0.52;;
77736;SDS011;66903;59.926;30.404;2023-03-12T22:03:20;0.88;;;0.50;;
77736;SDS011;66903;59.926;30.404;2023-03-12T22:08:21;2.90;;;0.60;;
77736;SDS011;66903;59.926;30.404;2023-03-12T22:13:22;0.57;;;0.30;;
77736;SDS011;66903;59.926;30.404;2023-03-12T22:18:23;1.25;;;0.40;;
77736;SDS011;66903;59.926;30.404;2023-03-12T22:28:52;1.13;;;0.30;;
77736;SDS011;66903;59.926;30.404;2023-03-12T22:33:54;0.90;;;0.30;;
77736;SDS011;66903;59.926;30.404;2023-03-12T22:38:58;1.02;;;0.40;;
77736;SDS011;66903;59.926;30.404;2023-03-12T22:44:18;1.55;;;0.50;;
77736;SDS011;66903;59.926;30.404;2023-03-12T22:49:18;1.48;;;0.45;;
77736;SDS011;66903;59.926;30.404;2023-03-12T22:54:19;0.28;;;0.20;;
77736;SDS011;66903;59.926;30.404;2023-03-12T22:59:19;1.20;;;0.30;;
77736;SDS011;66903;59.926;30.404;2023-03-12T23:04:20;0.93;;;0.30;;
77736;SDS011;66903;59.926;30.404;2023-03-12T23:09:20;0.90;;;0.30;;
77736;SDS011;66903;59.926;30.404;2023-03-12T23:14:23;1.02;;;0.30;;
77736;SDS011;66903;59.926;30.404;2023-03-12T23:19:55;1.02;;;0.38;;
77736;SDS011;66903;59.926;30.404;2023-03-12T23:24:55;0.70;;;0.25;;
77736;SDS011;66903;59.926;30.404;2023-03-12T23:30:11;0.88;;;0.35;;
77736;SDS011;66903;59.926;30.404;2023-03-12T23:36:31;1.63;;;0.50;;
77736;SDS011;66903;59.926;30.404;2023-03-12T23:46:55;1.75;;;0.40;;
77736;SDS011;66903;59.926;30.404;2023-03-12T23:57:49;1.35;;;0.40;;
